Terminal Aerodrome Forecast
Issued by NWS

Home | Current Version | Previous Version | Text Only | Print | Product List | Glossary On
Versions: 1 2 3 4 5 6 7 8 9 10 11 12 13 14 15 16 17 18 19 20
000
FTUS43 KABR 221700
TAFPIR
TAF
KPIR 221734Z 2218/2318 08012KT P6SM BKN060
     FM230600 07010KT P6SM -SHRA BKN050
     FM231300 07011KT 4SM -RA BR OVC015=

USA.gov is the U.S. government's official web portal to all federal, state and local government web resources and services.